Time,TemperatureF,DewpointF,PressureIn,WindDirection,WindDirectionDegrees,WindSpeedMPH,WindSpeedGustMPH,Humidity,HourlyPrecipIn,Conditions,Clouds,dailyrainin,SoftwareType,DateUTC
2013-02-26 00:01:00,27.0,23.1,29.74,WNW,292,4.0,4.0,85,0.00,,---,0.00,VWS V14.01,2013-02-26 06:01:00,
2013-02-26 00:06:00,27.0,23.1,29.74,NE,45,2.7,5.8,85,0.00,,---,0.00,VWS V14.01,2013-02-26 06:06:00,
2013-02-26 00:11:00,27.0,22.8,29.71,ENE,68,2.2,2.2,84,0.00,,---,0.00,VWS V14.01,2013-02-26 06:11:00,
2013-02-26 00:16:00,26.8,22.6,29.71,NE,45,2.5,5.6,84,0.00,,---,0.00,VWS V14.01,2013-02-26 06:16:00,
2013-02-26 00:21:00,26.6,22.4,29.71,ESE,112,2.5,5.8,84,0.00,,---,0.00,VWS V14.01,2013-02-26 06:21:00,
2013-02-26 00:26:00,26.6,22.4,29.71,SE,135,2.7,2.7,84,0.00,,---,0.00,VWS V14.01,2013-02-26 06:26:00,
2013-02-26 00:31:00,26.6,22.7,29.71,WNW,292,4.7,4.7,85,0.00,,---,0.00,VWS V14.01,2013-02-26 06:31:00,
2013-02-26 00:36:00,26.4,22.2,29.71,SSE,158,4.9,4.9,84,0.00,,---,0.00,VWS V14.01,2013-02-26 06:36:00,
2013-02-26 00:41:00,26.4,22.5,29.71,NW,315,1.6,2.5,85,0.00,,---,0.00,VWS V14.01,2013-02-26 06:41:00,
2013-02-26 00:46:00,26.4,22.5,29.71,SW,225,3.1,3.1,85,0.00,,---,0.00,VWS V14.01,2013-02-26 06:46:00,
2013-02-26 00:51:00,26.2,22.4,29.71,NNW,338,2.0,2.0,85,0.00,,---,0.00,VWS V14.01,2013-02-26 06:51:00,
2013-02-26 00:56:00,26.2,22.4,29.71,WNW,292,4.3,4.3,85,0.00,,---,0.00,VWS V14.01,2013-02-26 06:56:00,
2013-02-26 01:01:00,26.2,22.4,29.71,WNW,292,3.8,4.3,85,0.00,,---,0.00,VWS V14.01,2013-02-26 07:01:00,
2013-02-26 01:06:00,26.2,22.4,29.71,NNE,22,2.9,2.9,85,0.00,,---,0.00,VWS V14.01,2013-02-26 07:06:00,
2013-02-26 01:11:00,26.2,22.4,29.71,SSE,158,4.9,4.9,85,0.00,,---,0.00,VWS V14.01,2013-02-26 07:11:00,
2013-02-26 01:16:00,26.1,22.5,29.71,NNE,22,2.2,2.9,86,0.00,,---,0.00,VWS V14.01,2013-02-26 07:16:00,
2013-02-26 01:21:00,26.1,22.5,29.71,NNE,22,3.8,3.8,86,0.00,,---,0.00,VWS V14.01,2013-02-26 07:21:00,
2013-02-26 01:26:00,26.1,22.2,29.68,NNE,22,1.6,1.6,85,0.00,,---,0.00,VWS V14.01,2013-02-26 07:26:00,
2013-02-26 01:31:00,26.1,22.5,29.68,NNW,338,5.4,5.4,86,0.00,,---,0.00,VWS V14.01,2013-02-26 07:31:00,
2013-02-26 01:36:00,26.1,22.5,29.68,NNE,22,3.6,3.6,86,0.00,,---,0.00,VWS V14.01,2013-02-26 07:36:00,
2013-02-26 01:41:00,25.9,22.3,29.68,ENE,68,1.6,1.6,86,0.00,,---,0.00,VWS V14.01,2013-02-26 07:41:00,
2013-02-26 01:46:00,25.9,22.3,29.68,NW,315,3.4,4.0,86,0.00,,---,0.00,VWS V14.01,2013-02-26 07:46:00,
2013-02-26 01:51:00,25.9,22.3,29.68,WNW,292,8.5,8.5,86,0.00,,---,0.00,VWS V14.01,2013-02-26 07:51:00,
2013-02-26 01:56:00,25.9,22.3,29.68,WNW,292,5.6,8.7,86,0.00,,---,0.00,VWS V14.01,2013-02-26 07:56:00,
2013-02-26 02:01:00,25.9,22.3,29.68,NE,45,5.4,5.4,86,0.00,,---,0.00,VWS V14.01,2013-02-26 08:01:00,
2013-02-26 02:06:00,25.7,22.1,29.68,North,0,3.1,3.1,86,0.00,,---,0.00,VWS V14.01,2013-02-26 08:06:00,
2013-02-26 02:11:00,25.7,22.1,29.68,SSE,158,4.7,5.6,86,0.00,,---,0.00,VWS V14.01,2013-02-26 08:11:00,
2013-02-26 02:16:00,25.7,22.1,29.68,NW,315,4.0,4.0,86,0.00,,---,0.00,VWS V14.01,2013-02-26 08:16:00,
2013-02-26 02:21:00,25.7,22.1,29.68,North,0,2.9,3.4,86,0.00,,---,0.00,VWS V14.01,2013-02-26 08:21:00,
2013-02-26 02:26:00,25.7,22.1,29.68,NNW,338,3.6,3.6,86,0.00,,---,0.00,VWS V14.01,2013-02-26 08:26:00,
2013-02-26 02:31:00,25.7,22.1,29.68,NNE,22,3.8,3.8,86,0.00,,---,0.00,VWS V14.01,2013-02-26 08:31:00,
2013-02-26 02:36:00,25.7,22.1,29.68,North,0,2.7,4.3,86,0.00,,---,0.00,VWS V14.01,2013-02-26 08:36:00,
2013-02-26 02:41:00,25.7,22.4,29.68,South,180,2.0,4.3,87,0.00,,---,0.00,VWS V14.01,2013-02-26 08:41:00,
2013-02-26 02:46:00,25.7,22.4,29.68,WNW,292,1.3,2.7,87,0.00,,---,0.00,VWS V14.01,2013-02-26 08:46:00,
2013-02-26 02:51:00,25.7,22.4,29.68,NNE,22,2.5,2.5,87,0.00,,---,0.00,VWS V14.01,2013-02-26 08:51:00,
2013-02-26 02:56:00,25.7,22.4,29.68,South,180,4.0,4.9,87,0.00,,---,0.00,VWS V14.01,2013-02-26 08:56:00,
2013-02-26 03:01:00,25.9,22.5,29.68,SSE,158,3.4,3.4,87,0.00,,---,0.00,VWS V14.01,2013-02-26 09:01:00,
2013-02-26 03:06:00,25.9,22.5,29.68,SE,135,4.7,4.7,87,0.00,,---,0.00,VWS V14.01,2013-02-26 09:06:00,
2013-02-26 03:12:00,25.9,22.5,29.65,SSE,158,6.0,6.0,87,0.00,,---,0.00,VWS V14.01,2013-02-26 09:12:00,
2013-02-26 03:17:00,25.9,22.5,29.65,ENE,68,4.0,4.0,87,0.00,,---,0.00,VWS V14.01,2013-02-26 09:17:00,
2013-02-26 03:22:00,25.9,22.5,29.65,WSW,248,2.7,2.7,87,0.00,,---,0.00,VWS V14.01,2013-02-26 09:22:00,
2013-02-26 03:27:00,25.9,22.5,29.65,ENE,68,3.1,3.1,87,0.00,,---,0.00,VWS V14.01,2013-02-26 09:27:00,
2013-02-26 03:32:00,25.9,22.5,29.65,NE,45,3.6,3.6,87,0.00,,---,0.00,VWS V14.01,2013-02-26 09:32:00,
2013-02-26 03:37:00,25.9,22.5,29.65,SSW,202,2.5,2.5,87,0.00,,---,0.00,VWS V14.01,2013-02-26 09:37:00,
2013-02-26 03:42:00,26.1,22.7,29.65,North,0,6.0,6.0,87,0.00,,---,0.00,VWS V14.01,2013-02-26 09:42:00,
2013-02-26 03:47:00,26.1,22.7,29.65,ENE,68,3.1,3.1,87,0.00,,---,0.00,VWS V14.01,2013-02-26 09:47:00,
2013-02-26 03:52:00,26.1,22.7,29.65,ESE,112,4.7,4.7,87,0.00,,---,0.00,VWS V14.01,2013-02-26 09:52:00,
2013-02-26 03:57:00,26.1,22.7,29.65,SE,135,3.8,3.8,87,0.00,,---,0.00,VWS V14.01,2013-02-26 09:57:00,
2013-02-26 04:02:00,26.1,22.7,29.65,WNW,292,2.5,2.5,87,0.00,,---,0.00,VWS V14.01,2013-02-26 10:02:00,
2013-02-26 04:07:00,26.1,22.7,29.65,SSW,202,3.1,3.1,87,0.00,,---,0.00,VWS V14.01,2013-02-26 10:07:00,
2013-02-26 04:12:00,26.1,23.0,29.65,NNW,338,4.3,4.3,88,0.00,,---,0.00,VWS V14.01,2013-02-26 10:12:00,
2013-02-26 04:17:00,26.1,23.0,29.65,WNW,292,3.6,3.6,88,0.00,,---,0.00,VWS V14.01,2013-02-26 10:17:00,
2013-02-26 04:22:00,26.1,22.7,29.65,WNW,292,2.0,2.0,87,0.00,,---,0.00,VWS V14.01,2013-02-26 10:22:00,
2013-02-26 04:27:00,26.1,22.7,29.65,NNW,338,4.3,4.3,87,0.00,,---,0.00,VWS V14.01,2013-02-26 10:27:00,
2013-02-26 04:32:00,26.1,22.7,29.65,NNE,22,4.3,6.0,87,0.00,,---,0.00,VWS V14.01,2013-02-26 10:32:00,
2013-02-26 04:37:00,26.1,23.0,29.65,NW,315,7.2,7.2,88,0.00,,---,0.00,VWS V14.01,2013-02-26 10:37:00,
2013-02-26 04:42:00,26.1,23.0,29.65,ESE,112,6.3,6.3,88,0.00,,---,0.00,VWS V14.01,2013-02-26 10:42:00,
2013-02-26 04:47:00,26.1,22.7,29.65,SSE,158,2.5,4.9,87,0.00,,---,0.00,VWS V14.01,2013-02-26 10:47:00,
2013-02-26 04:52:00,26.1,23.0,29.65,SSE,158,4.3,4.3,88,0.00,,---,0.00,VWS V14.01,2013-02-26 10:52:00,
2013-02-26 04:57:00,26.1,23.0,29.65,NNW,338,1.6,1.6,88,0.00,,---,0.00,VWS V14.01,2013-02-26 10:57:00,
2013-02-26 05:02:00,26.1,23.0,29.65,NNE,22,5.4,5.4,88,0.00,,---,0.00,VWS V14.01,2013-02-26 11:02:00,
2013-02-26 05:07:00,26.1,23.0,29.65,NE,45,3.8,3.8,88,0.00,,---,0.00,VWS V14.01,2013-02-26 11:07:00,
2013-02-26 05:12:00,26.1,23.0,29.65,ENE,68,3.1,3.1,88,0.00,,---,0.00,VWS V14.01,2013-02-26 11:12:00,
2013-02-26 05:17:00,26.1,23.0,29.65,NNW,338,4.3,4.3,88,0.00,,---,0.00,VWS V14.01,2013-02-26 11:17:00,
2013-02-26 05:22:00,26.2,23.2,29.65,NNE,22,3.1,3.1,88,0.00,,---,0.00,VWS V14.01,2013-02-26 11:22:00,
2013-02-26 05:27:00,26.2,23.2,29.65,NNE,22,5.8,5.8,88,0.00,,---,0.00,VWS V14.01,2013-02-26 11:27:00,
2013-02-26 05:32:00,26.2,23.2,29.65,NW,315,3.1,4.0,88,0.00,,---,0.00,VWS V14.01,2013-02-26 11:32:00,
2013-02-26 05:37:00,26.2,23.2,29.65,WNW,292,3.8,3.8,88,0.00,,---,0.00,VWS V14.01,2013-02-26 11:37:00,
2013-02-26 05:42:00,26.2,23.2,29.65,NW,315,3.6,3.6,88,0.00,,---,0.00,VWS V14.01,2013-02-26 11:42:00,
2013-02-26 05:47:00,26.2,23.2,29.65,NNW,338,3.8,3.8,88,0.00,,---,0.00,VWS V14.01,2013-02-26 11:47:00,
2013-02-26 05:52:00,26.4,23.4,29.65,SSW,202,5.4,5.4,88,0.00,,---,0.00,VWS V14.01,2013-02-26 11:52:00,
2013-02-26 05:57:00,26.2,23.2,29.65,NNW,338,2.9,6.0,88,0.00,,---,0.00,VWS V14.01,2013-02-26 11:57:00,
2013-02-26 06:02:00,26.2,23.2,29.65,NNW,338,4.0,4.0,88,0.00,,---,0.00,VWS V14.01,2013-02-26 12:02:00,
2013-02-26 06:07:00,26.2,23.2,29.65,SSE,158,3.8,5.4,88,0.00,,---,0.00,VWS V14.01,2013-02-26 12:07:00,
2013-02-26 06:12:00,26.2,23.2,29.65,ENE,68,4.7,4.7,88,0.00,,---,0.00,VWS V14.01,2013-02-26 12:12:00,
2013-02-26 06:17:00,26.2,23.2,29.65,WNW,292,6.3,6.3,88,0.00,,---,0.00,VWS V14.01,2013-02-26 12:17:00,
2013-02-26 06:22:00,26.2,23.2,29.65,NNE,22,1.6,2.5,88,0.00,,---,0.00,VWS V14.01,2013-02-26 12:22:00,
2013-02-26 06:27:00,26.2,23.5,29.62,WNW,292,2.5,3.4,89,0.00,,---,0.00,VWS V14.01,2013-02-26 12:27:00,
2013-02-26 06:32:00,26.2,23.5,29.62,NE,45,2.9,4.3,89,0.00,,---,0.00,VWS V14.01,2013-02-26 12:32:00,
2013-02-26 06:37:00,26.2,23.5,29.62,WSW,248,4.9,4.9,89,0.00,,---,0.00,VWS V14.01,2013-02-26 12:37:00,
2013-02-26 06:42:00,26.2,23.5,29.65,NNW,338,2.0,2.5,89,0.00,,---,0.00,VWS V14.01,2013-02-26 12:42:00,
2013-02-26 06:47:00,26.2,23.5,29.65,NNE,22,2.0,4.7,89,0.00,,---,0.00,VWS V14.01,2013-02-26 12:47:00,
2013-02-26 06:52:00,26.4,23.6,29.65,NNE,22,5.4,5.4,89,0.00,,---,0.00,VWS V14.01,2013-02-26 12:52:00,
2013-02-26 06:57:00,26.4,23.6,29.65,WNW,292,8.7,8.7,89,0.00,,---,0.00,VWS V14.01,2013-02-26 12:57:00,
2013-02-26 07:02:00,26.6,23.8,29.65,NNW,338,3.8,6.5,89,0.00,,---,0.00,VWS V14.01,2013-02-26 13:02:00,
2013-02-26 07:07:00,26.6,23.8,29.65,WNW,292,2.2,3.8,89,0.00,,---,0.00,VWS V14.01,2013-02-26 13:07:00,
2013-02-26 07:12:00,26.8,24.0,29.62,SE,135,3.8,3.8,89,0.00,,---,0.00,VWS V14.01,2013-02-26 13:12:00,
2013-02-26 07:17:00,27.0,24.2,29.62,NNE,22,4.3,4.3,89,0.00,,---,0.00,VWS V14.01,2013-02-26 13:17:00,
2013-02-26 07:22:00,27.0,24.2,29.62,WNW,292,3.4,4.0,89,0.00,,---,0.00,VWS V14.01,2013-02-26 13:22:00,
2013-02-26 07:27:00,27.0,24.2,29.62,NNW,338,3.6,4.5,89,0.00,,---,0.00,VWS V14.01,2013-02-26 13:27:00,
2013-02-26 07:32:00,27.1,24.3,29.62,NNE,22,2.7,2.7,89,0.00,,---,0.00,VWS V14.01,2013-02-26 13:32:00,
2013-02-26 07:37:00,27.1,24.3,29.62,NNE,22,2.5,2.7,89,0.00,,---,0.00,VWS V14.01,2013-02-26 13:37:00,
2013-02-26 07:42:00,27.3,24.5,29.65,SW,225,4.0,4.0,89,0.00,,---,0.00,VWS V14.01,2013-02-26 13:42:00,
2013-02-26 07:47:00,27.5,24.7,29.65,NW,315,5.4,5.4,89,0.00,,---,0.00,VWS V14.01,2013-02-26 13:47:00,
2013-02-26 07:52:00,27.5,24.7,29.65,SE,135,3.1,3.1,89,0.00,,---,0.00,VWS V14.01,2013-02-26 13:52:00,
2013-02-26 07:57:00,27.5,24.7,29.65,NNE,22,10.1,10.1,89,0.00,,---,0.00,VWS V14.01,2013-02-26 13:57:00,
2013-02-26 08:02:00,27.7,24.9,29.65,ENE,68,7.2,10.7,89,0.00,,---,0.00,VWS V14.01,2013-02-26 14:02:00,
2013-02-26 08:07:00,27.7,24.9,29.65,NNE,22,4.9,4.9,89,0.00,,---,0.00,VWS V14.01,2013-02-26 14:07:00,
2013-02-26 08:12:00,27.7,24.9,29.65,North,0,3.6,4.9,89,0.00,,---,0.00,VWS V14.01,2013-02-26 14:12:00,
2013-02-26 08:17:00,27.9,25.0,29.65,NNE,22,4.9,4.9,89,0.00,,---,0.00,VWS V14.01,2013-02-26 14:17:00,
2013-02-26 08:22:00,27.9,24.8,29.65,NNE,22,4.9,4.9,88,0.00,,---,0.00,VWS V14.01,2013-02-26 14:22:00,
2013-02-26 08:27:00,27.9,24.8,29.65,NNW,338,3.6,3.6,88,0.00,,---,0.00,VWS V14.01,2013-02-26 14:27:00,
2013-02-26 08:32:00,27.9,24.8,29.65,SSE,158,2.0,3.1,88,0.00,,---,0.00,VWS V14.01,2013-02-26 14:32:00,
2013-02-26 08:37:00,27.9,24.8,29.65,NNW,338,6.3,6.3,88,0.00,,---,0.00,VWS V14.01,2013-02-26 14:37:00,
2013-02-26 08:42:00,27.9,24.8,29.65,ENE,68,3.6,3.6,88,0.00,,---,0.00,VWS V14.01,2013-02-26 14:42:00,
2013-02-26 08:47:00,27.9,24.8,29.65,WNW,292,4.9,4.9,88,0.00,,---,0.00,VWS V14.01,2013-02-26 14:47:00,
2013-02-26 08:52:00,28.0,24.7,29.65,East,90,7.6,7.6,87,0.00,,---,0.00,VWS V14.01,2013-02-26 14:52:00,
2013-02-26 08:57:00,28.0,24.7,29.65,NE,45,4.7,7.2,87,0.00,,---,0.00,VWS V14.01,2013-02-26 14:57:00,
2013-02-26 09:02:00,28.0,24.7,29.65,ENE,68,3.6,6.5,87,0.00,,---,0.00,VWS V14.01,2013-02-26 15:02:00,
2013-02-26 09:07:00,28.0,24.7,29.65,ENE,68,4.3,4.3,87,0.00,,---,0.00,VWS V14.01,2013-02-26 15:07:00,
2013-02-26 09:12:00,28.2,24.9,29.65,North,0,6.5,6.5,87,0.00,,---,0.00,VWS V14.01,2013-02-26 15:12:00,
2013-02-26 09:17:00,28.2,24.9,29.65,NNW,338,3.6,6.0,87,0.00,,---,0.00,VWS V14.01,2013-02-26 15:17:00,
2013-02-26 09:22:00,28.2,24.6,29.65,ENE,68,5.8,5.8,86,0.00,,---,0.00,VWS V14.01,2013-02-26 15:22:00,
2013-02-26 09:27:00,28.0,24.4,29.65,WNW,292,4.3,6.3,86,0.00,,---,0.00,VWS V14.01,2013-02-26 15:27:00,
2013-02-26 09:32:00,28.0,24.4,29.65,NNE,22,5.6,6.0,86,0.00,,---,0.00,VWS V14.01,2013-02-26 15:32:00,
2013-02-26 09:37:00,27.9,24.2,29.65,South,180,2.7,4.0,86,0.00,,---,0.00,VWS V14.01,2013-02-26 15:37:00,
2013-02-26 09:42:00,27.7,24.0,29.65,NNW,338,3.6,3.6,86,0.00,,---,0.00,VWS V14.01,2013-02-26 15:42:00,
2013-02-26 09:47:00,27.5,23.9,29.65,North,0,3.4,5.6,86,0.00,,---,0.00,VWS V14.01,2013-02-26 15:47:00,
2013-02-26 09:52:00,27.3,23.4,29.65,NNW,338,3.6,5.8,85,0.00,,---,0.00,VWS V14.01,2013-02-26 15:52:00,
2013-02-26 09:57:00,27.3,23.4,29.65,South,180,4.9,4.9,85,0.00,,---,0.00,VWS V14.01,2013-02-26 15:57:00,
2013-02-26 10:03:00,27.3,23.4,29.65,West,270,12.3,12.3,85,0.00,,---,0.00,VWS V14.01,2013-02-26 16:03:00,
2013-02-26 10:08:00,27.0,23.1,29.65,NNE,22,2.7,2.7,85,0.00,,---,0.00,VWS V14.01,2013-02-26 16:08:00,
2013-02-26 10:13:00,27.0,23.1,29.65,NNW,338,7.6,7.6,85,0.00,,---,0.00,VWS V14.01,2013-02-26 16:13:00,
2013-02-26 10:18:00,27.1,23.2,29.65,NNE,22,4.9,4.9,85,0.00,,---,0.00,VWS V14.01,2013-02-26 16:18:00,
2013-02-26 10:23:00,27.1,23.2,29.65,SSW,202,4.3,4.3,85,0.00,,---,0.00,VWS V14.01,2013-02-26 16:23:00,
2013-02-26 10:28:00,27.1,23.0,29.65,ENE,68,4.5,4.5,84,0.00,,---,0.00,VWS V14.01,2013-02-26 16:28:00,
2013-02-26 10:33:00,27.1,23.0,29.65,NNE,22,3.4,3.4,84,0.00,,---,0.00,VWS V14.01,2013-02-26 16:33:00,
2013-02-26 10:38:00,27.1,23.0,29.65,South,180,4.0,4.0,84,0.00,,---,0.00,VWS V14.01,2013-02-26 16:38:00,
2013-02-26 10:43:00,27.1,23.0,29.65,NNE,22,4.9,4.9,84,0.00,,---,0.00,VWS V14.01,2013-02-26 16:43:00,
2013-02-26 10:48:00,27.3,23.1,29.65,NNW,338,3.6,3.6,84,0.00,,---,0.00,VWS V14.01,2013-02-26 16:48:00,
2013-02-26 10:53:00,27.5,23.3,29.65,WSW,248,2.9,2.9,84,0.00,,---,0.00,VWS V14.01,2013-02-26 16:53:00,
2013-02-26 10:58:00,27.7,23.5,29.65,NNW,338,7.6,7.6,84,0.00,,---,0.00,VWS V14.01,2013-02-26 16:58:00,
2013-02-26 11:03:00,27.9,23.4,29.65,NNE,22,5.6,5.6,83,0.00,,---,0.00,VWS V14.01,2013-02-26 17:03:00,
2013-02-26 11:08:00,27.9,23.4,29.65,NNW,338,4.3,4.3,83,0.00,,---,0.00,VWS V14.01,2013-02-26 17:08:00,
2013-02-26 11:13:00,28.4,23.9,29.65,SE,135,3.8,3.8,83,0.00,,---,0.00,VWS V14.01,2013-02-26 17:13:00,
2013-02-26 11:18:00,28.6,24.1,29.65,West,270,3.4,7.4,83,0.00,,---,0.00,VWS V14.01,2013-02-26 17:18:00,
2013-02-26 11:23:00,28.8,24.0,29.65,NNW,338,8.1,8.1,82,0.00,,---,0.00,VWS V14.01,2013-02-26 17:23:00,
2013-02-26 11:28:00,28.8,24.0,29.65,South,180,4.0,4.0,82,0.00,,---,0.00,VWS V14.01,2013-02-26 17:28:00,
2013-02-26 11:33:00,28.9,24.1,29.65,NNE,22,5.6,5.6,82,0.00,,---,0.00,VWS V14.01,2013-02-26 17:33:00,
2013-02-26 11:38:00,29.3,24.5,29.65,NNE,22,2.9,2.9,82,0.00,,---,0.00,VWS V14.01,2013-02-26 17:38:00,
2013-02-26 11:43:00,29.5,24.4,29.65,NNW,338,4.3,4.3,81,0.00,,---,0.00,VWS V14.01,2013-02-26 17:43:00,
2013-02-26 11:48:00,29.5,24.4,29.65,NNW,338,7.6,7.6,81,0.00,,---,0.00,VWS V14.01,2013-02-26 17:48:00,
2013-02-26 11:53:00,29.7,24.6,29.62,North,0,1.6,5.4,81,0.00,,---,0.00,VWS V14.01,2013-02-26 17:53:00,
2013-02-26 11:58:00,30.4,25.3,29.62,West,270,4.0,5.4,81,0.00,,---,0.00,VWS V14.01,2013-02-26 17:58:00,
2013-02-26 12:03:00,30.9,25.5,29.62,ESE,112,5.8,5.8,80,0.00,,---,0.00,VWS V14.01,2013-02-26 18:03:00,
2013-02-26 12:08:00,31.1,25.7,29.62,NNW,338,3.1,3.6,80,0.00,,---,0.00,VWS V14.01,2013-02-26 18:08:00,
2013-02-26 12:13:00,30.9,25.5,29.62,NNE,22,5.8,5.8,80,0.00,,---,0.00,VWS V14.01,2013-02-26 18:13:00,
2013-02-26 12:18:00,30.9,25.5,29.62,SSW,202,3.1,4.7,80,0.00,,---,0.00,VWS V14.01,2013-02-26 18:18:00,
2013-02-26 12:23:00,30.6,24.8,29.62,ESE,112,3.6,6.3,79,0.00,,---,0.00,VWS V14.01,2013-02-26 18:23:00,
2013-02-26 12:28:00,30.6,24.8,29.62,North,0,4.0,4.0,79,0.00,,---,0.00,VWS V14.01,2013-02-26 18:28:00,
2013-02-26 12:33:00,30.7,25.0,29.62,WNW,292,3.8,3.8,79,0.00,,---,0.00,VWS V14.01,2013-02-26 18:33:00,
2013-02-26 12:38:00,30.9,25.2,29.62,NNW,338,3.4,3.4,79,0.00,,---,0.00,VWS V14.01,2013-02-26 18:38:00,
2013-02-26 12:43:00,30.7,25.0,29.62,WNW,292,2.5,4.9,79,0.00,,---,0.00,VWS V14.01,2013-02-26 18:43:00,
2013-02-26 12:48:00,30.9,25.2,29.62,WSW,248,3.8,3.8,79,0.00,,---,0.00,VWS V14.01,2013-02-26 18:48:00,
2013-02-26 12:53:00,30.9,25.2,29.62,NNW,338,3.6,6.9,79,0.00,,---,0.00,VWS V14.01,2013-02-26 18:53:00,
2013-02-26 12:58:00,30.9,25.2,29.62,West,270,4.3,4.9,79,0.00,,---,0.00,VWS V14.01,2013-02-26 18:58:00,
2013-02-26 13:03:00,31.1,25.4,29.62,North,0,4.7,4.7,79,0.00,,---,0.00,VWS V14.01,2013-02-26 19:03:00,
2013-02-26 13:08:00,31.1,25.4,29.62,NW,315,3.4,4.7,79,0.00,,---,0.00,VWS V14.01,2013-02-26 19:08:00,
2013-02-26 13:13:00,31.1,25.4,29.62,ENE,68,4.0,4.9,79,0.00,,---,0.00,VWS V14.01,2013-02-26 19:13:00,
2013-02-26 13:18:00,31.1,25.7,29.62,SW,225,2.5,3.8,80,0.00,,---,0.00,VWS V14.01,2013-02-26 19:18:00,
2013-02-26 13:23:00,31.1,25.7,29.62,WSW,248,3.6,3.6,80,0.00,,---,0.00,VWS V14.01,2013-02-26 19:23:00,
2013-02-26 13:28:00,31.1,25.7,29.62,NE,45,3.8,6.0,80,0.00,,---,0.00,VWS V14.01,2013-02-26 19:28:00,
2013-02-26 13:33:00,31.1,25.7,29.62,NW,315,3.6,5.4,80,0.00,,---,0.00,VWS V14.01,2013-02-26 19:33:00,
2013-02-26 13:38:00,31.3,26.1,29.59,NW,315,5.6,5.6,81,0.00,,---,0.00,VWS V14.01,2013-02-26 19:38:00,
2013-02-26 13:43:00,31.8,26.7,29.59,NNW,338,11.0,11.0,81,0.00,,---,0.00,VWS V14.01,2013-02-26 19:43:00,
2013-02-26 13:48:00,31.6,26.5,29.59,NNE,22,6.5,6.5,81,0.00,,---,0.00,VWS V14.01,2013-02-26 19:48:00,
2013-02-26 13:54:00,31.6,26.5,29.59,NE,45,4.9,4.9,81,0.00,,---,0.00,VWS V14.01,2013-02-26 19:54:00,
2013-02-26 13:59:00,31.6,26.5,29.59,WNW,292,6.0,6.0,81,0.00,,---,0.00,VWS V14.01,2013-02-26 19:59:00,
2013-02-26 14:04:00,31.8,26.7,29.59,South,180,2.9,5.4,81,0.00,,---,0.00,VWS V14.01,2013-02-26 20:04:00,
2013-02-26 14:09:00,32.0,27.1,29.59,ENE,68,3.4,3.4,82,0.00,,---,0.00,VWS V14.01,2013-02-26 20:09:00,
2013-02-26 14:14:00,32.2,27.3,29.59,NNW,338,7.4,7.4,82,0.00,,---,0.00,VWS V14.01,2013-02-26 20:14:00,
2013-02-26 14:19:00,32.2,27.3,29.59,NW,315,3.1,3.1,82,0.00,,---,0.00,VWS V14.01,2013-02-26 20:19:00,
2013-02-26 14:24:00,32.4,27.5,29.59,NNW,338,4.9,4.9,82,0.00,,---,0.00,VWS V14.01,2013-02-26 20:24:00,
2013-02-26 14:29:00,32.5,27.7,29.59,NNW,338,7.2,7.2,82,0.00,,---,0.00,VWS V14.01,2013-02-26 20:29:00,
2013-02-26 14:34:00,32.4,27.5,29.59,NE,45,4.3,4.3,82,0.00,,---,0.00,VWS V14.01,2013-02-26 20:34:00,
2013-02-26 14:39:00,32.5,27.7,29.59,ESE,112,3.1,7.8,82,0.00,,---,0.00,VWS V14.01,2013-02-26 20:39:00,
2013-02-26 14:44:00,32.5,27.7,29.59,ENE,68,5.4,5.4,82,0.00,,---,0.00,VWS V14.01,2013-02-26 20:44:00,
2013-02-26 14:49:00,32.5,27.7,29.59,ESE,112,3.8,3.8,82,0.00,,---,0.00,VWS V14.01,2013-02-26 20:49:00,
2013-02-26 14:54:00,32.4,27.2,29.59,NNW,338,6.5,6.5,81,0.00,,---,0.00,VWS V14.01,2013-02-26 20:54:00,
2013-02-26 14:59:00,32.2,27.0,29.59,NNW,338,5.6,5.8,81,0.00,,---,0.00,VWS V14.01,2013-02-26 20:59:00,
2013-02-26 15:04:00,32.4,27.2,29.59,ENE,68,2.5,2.5,81,0.00,,---,0.00,VWS V14.01,2013-02-26 21:04:00,
2013-02-26 15:09:00,32.4,27.5,29.59,ESE,112,6.3,6.3,82,0.00,,---,0.00,VWS V14.01,2013-02-26 21:09:00,
2013-02-26 15:14:00,32.4,27.2,29.59,WNW,292,6.5,6.5,81,0.00,,---,0.00,VWS V14.01,2013-02-26 21:14:00,
2013-02-26 15:19:00,32.4,27.2,29.59,WNW,292,7.6,7.6,81,0.00,,---,0.00,VWS V14.01,2013-02-26 21:19:00,
2013-02-26 15:24:00,32.4,27.2,29.59,WSW,248,6.5,6.5,81,0.00,,---,0.00,VWS V14.01,2013-02-26 21:24:00,
2013-02-26 15:29:00,32.4,27.2,29.59,WSW,248,4.9,4.9,81,0.00,,---,0.00,VWS V14.01,2013-02-26 21:29:00,
2013-02-26 15:34:00,32.5,27.4,29.59,NNW,338,3.1,3.1,81,0.00,,---,0.00,VWS V14.01,2013-02-26 21:34:00,
2013-02-26 15:39:00,32.5,27.4,29.59,East,90,3.6,4.3,81,0.00,,---,0.00,VWS V14.01,2013-02-26 21:39:00,
2013-02-26 15:44:00,32.5,27.4,29.59,NW,315,5.8,5.8,81,0.00,,---,0.00,VWS V14.01,2013-02-26 21:44:00,
2013-02-26 15:49:00,32.7,27.5,29.59,NE,45,6.3,6.3,81,0.00,,---,0.00,VWS V14.01,2013-02-26 21:49:00,
2013-02-26 15:54:00,32.7,27.5,29.59,North,0,4.3,4.3,81,0.00,,---,0.00,VWS V14.01,2013-02-26 21:54:00,
2013-02-26 15:59:00,32.7,27.5,29.59,NNW,338,4.7,4.7,81,0.00,,---,0.00,VWS V14.01,2013-02-26 21:59:00,
2013-02-26 16:04:00,32.7,27.5,29.59,East,90,5.6,7.2,81,0.00,,---,0.00,VWS V14.01,2013-02-26 22:04:00,
2013-02-26 16:09:00,32.7,27.2,29.59,NNW,338,5.6,5.6,80,0.00,,---,0.00,VWS V14.01,2013-02-26 22:09:00,
2013-02-26 16:14:00,32.7,27.2,29.59,WNW,292,2.7,9.8,80,0.00,,---,0.00,VWS V14.01,2013-02-26 22:14:00,
2013-02-26 16:19:00,32.9,27.4,29.59,WNW,292,6.9,6.9,80,0.00,,---,0.00,VWS V14.01,2013-02-26 22:19:00,
2013-02-26 16:24:00,33.1,27.6,29.62,NW,315,4.3,8.7,80,0.00,,---,0.00,VWS V14.01,2013-02-26 22:24:00,
2013-02-26 16:29:00,33.3,27.8,29.62,East,90,8.1,8.1,80,0.00,,---,0.00,VWS V14.01,2013-02-26 22:29:00,
2013-02-26 16:34:00,33.4,27.6,29.62,WNW,292,8.1,8.1,79,0.00,,---,0.00,VWS V14.01,2013-02-26 22:34:00,
2013-02-26 16:39:00,33.6,27.8,29.62,ENE,68,4.7,8.1,79,0.00,,---,0.00,VWS V14.01,2013-02-26 22:39:00,
2013-02-26 16:44:00,33.6,27.8,29.62,NE,45,3.6,3.6,79,0.00,,---,0.00,VWS V14.01,2013-02-26 22:44:00,
2013-02-26 16:49:00,33.3,27.5,29.62,NE,45,6.7,6.7,79,0.00,,---,0.00,VWS V14.01,2013-02-26 22:49:00,
2013-02-26 16:54:00,33.1,27.3,29.62,NNW,338,3.1,3.1,79,0.00,,---,0.00,VWS V14.01,2013-02-26 22:54:00,
2013-02-26 16:59:00,33.1,27.3,29.62,ENE,68,3.4,3.4,79,0.00,,---,0.00,VWS V14.01,2013-02-26 22:59:00,
2013-02-26 17:04:00,33.3,27.5,29.62,SSW,202,4.0,7.6,79,0.00,,---,0.00,VWS V14.01,2013-02-26 23:04:00,
2013-02-26 17:09:00,33.3,27.5,29.62,NE,45,2.7,2.7,79,0.00,,---,0.00,VWS V14.01,2013-02-26 23:09:00,
2013-02-26 17:14:00,33.3,27.5,29.62,NNW,338,5.4,5.4,79,0.00,,---,0.00,VWS V14.01,2013-02-26 23:14:00,
2013-02-26 17:19:00,33.4,27.6,29.62,NE,45,2.7,2.7,79,0.00,,---,0.00,VWS V14.01,2013-02-26 23:19:00,
2013-02-26 17:25:00,33.4,27.6,29.62,NNW,338,5.4,5.4,79,0.00,,---,0.00,VWS V14.01,2013-02-26 23:25:00,
2013-02-26 17:30:00,33.4,27.6,29.62,North,0,2.9,2.9,79,0.00,,---,0.00,VWS V14.01,2013-02-26 23:30:00,
2013-02-26 17:35:00,33.3,27.5,29.62,NNW,338,6.9,6.9,79,0.00,,---,0.00,VWS V14.01,2013-02-26 23:35:00,
2013-02-26 17:40:00,33.3,27.5,29.62,WNW,292,3.6,3.6,79,0.00,,---,0.00,VWS V14.01,2013-02-26 23:40:00,
2013-02-26 17:45:00,33.3,27.5,29.62,NNE,22,3.8,5.6,79,0.00,,---,0.00,VWS V14.01,2013-02-26 23:45:00,
2013-02-26 17:50:00,33.3,27.5,29.62,NNE,22,2.9,5.4,79,0.00,,---,0.00,VWS V14.01,2013-02-26 23:50:00,
2013-02-26 17:55:00,33.1,27.3,29.62,NNW,338,5.8,5.8,79,0.00,,---,0.00,VWS V14.01,2013-02-26 23:55:00,
2013-02-26 18:00:00,33.1,27.3,29.62,ENE,68,6.0,6.0,79,0.00,,---,0.00,VWS V14.01,2013-02-27 00:00:00,
2013-02-26 18:05:00,33.1,27.3,29.62,NW,315,8.1,8.1,79,0.00,,---,0.00,VWS V14.01,2013-02-27 00:05:00,
2013-02-26 18:10:00,33.1,27.3,29.65,NNE,22,6.5,6.5,79,0.00,,---,0.00,VWS V14.01,2013-02-27 00:10:00,
2013-02-26 18:15:00,32.9,27.1,29.65,NNW,338,4.0,4.0,79,0.00,,---,0.00,VWS V14.01,2013-02-27 00:15:00,
2013-02-26 18:20:00,32.9,27.1,29.65,NNW,338,5.4,5.4,79,0.00,,---,0.00,VWS V14.01,2013-02-27 00:20:00,
2013-02-26 18:25:00,32.7,26.9,29.65,NNW,338,7.2,7.2,79,0.00,,---,0.00,VWS V14.01,2013-02-27 00:25:00,
2013-02-26 18:30:00,32.7,26.9,29.65,WNW,292,6.5,6.5,79,0.00,,---,0.00,VWS V14.01,2013-02-27 00:30:00,
2013-02-26 18:35:00,32.7,26.9,29.65,NNW,338,6.0,9.4,79,0.00,,---,0.00,VWS V14.01,2013-02-27 00:35:00,
2013-02-26 18:40:00,32.7,26.9,29.65,ENE,68,5.4,5.4,79,0.00,,---,0.00,VWS V14.01,2013-02-27 00:40:00,
2013-02-26 18:45:00,32.7,26.9,29.65,ESE,112,5.8,5.8,79,0.00,,---,0.00,VWS V14.01,2013-02-27 00:45:00,
2013-02-26 18:50:00,32.7,26.9,29.65,NE,45,7.4,7.4,79,0.00,,---,0.00,VWS V14.01,2013-02-27 00:50:00,
2013-02-26 18:55:00,32.5,26.8,29.65,NNW,338,4.9,7.4,79,0.00,,---,0.00,VWS V14.01,2013-02-27 00:55:00,
2013-02-26 19:00:00,32.5,26.8,29.65,WNW,292,2.9,2.9,79,0.00,,---,0.00,VWS V14.01,2013-02-27 01:00:00,
2013-02-26 19:05:00,32.5,26.8,29.65,NE,45,6.5,6.5,79,0.00,,---,0.00,VWS V14.01,2013-02-27 01:05:00,
2013-02-26 19:10:00,32.5,26.8,29.65,NE,45,5.6,5.6,79,0.00,,---,0.00,VWS V14.01,2013-02-27 01:10:00,
2013-02-26 19:15:00,32.5,26.8,29.65,NNW,338,3.6,3.6,79,0.00,,---,0.00,VWS V14.01,2013-02-27 01:15:00,
2013-02-26 19:20:00,32.4,26.6,29.65,ESE,112,6.9,6.9,79,0.00,,---,0.00,VWS V14.01,2013-02-27 01:20:00,
2013-02-26 19:25:00,32.4,26.6,29.65,WNW,292,2.7,7.2,79,0.00,,---,0.00,VWS V14.01,2013-02-27 01:25:00,
2013-02-26 19:30:00,32.4,26.6,29.65,NNE,22,13.2,13.2,79,0.00,,---,0.00,VWS V14.01,2013-02-27 01:30:00,
2013-02-26 19:35:00,32.2,26.4,29.65,ENE,68,9.0,9.0,79,0.00,,---,0.00,VWS V14.01,2013-02-27 01:35:00,
2013-02-26 19:40:00,32.2,26.4,29.65,NNE,22,2.5,3.6,79,0.00,,---,0.00,VWS V14.01,2013-02-27 01:40:00,
2013-02-26 19:45:00,32.2,26.7,29.65,WNW,292,2.7,3.6,80,0.00,,---,0.00,VWS V14.01,2013-02-27 01:45:00,
2013-02-26 19:50:00,32.2,26.4,29.65,SW,225,9.0,9.0,79,0.00,,---,0.00,VWS V14.01,2013-02-27 01:50:00,
2013-02-26 19:55:00,32.0,26.2,29.65,NE,45,5.4,5.4,79,0.00,,---,0.00,VWS V14.01,2013-02-27 01:55:00,
2013-02-26 20:00:00,32.0,26.2,29.65,North,0,3.6,4.3,79,0.00,,---,0.00,VWS V14.01,2013-02-27 02:00:00,
2013-02-26 20:05:00,31.8,26.1,29.65,SSW,202,2.9,4.5,79,0.00,,---,0.00,VWS V14.01,2013-02-27 02:05:00,
2013-02-26 20:10:00,31.8,26.1,29.68,North,0,10.1,10.1,79,0.00,,---,0.00,VWS V14.01,2013-02-27 02:10:00,
2013-02-26 20:15:00,31.8,26.1,29.68,NNW,338,6.9,6.9,79,0.00,,---,0.00,VWS V14.01,2013-02-27 02:15:00,
2013-02-26 20:20:00,31.6,25.9,29.68,SE,135,9.6,9.6,79,0.00,,---,0.00,VWS V14.01,2013-02-27 02:20:00,
2013-02-26 20:26:00,31.6,25.9,29.68,NE,45,5.6,5.6,79,0.00,,---,0.00,VWS V14.01,2013-02-27 02:26:00,
2013-02-26 20:31:00,31.6,25.9,29.68,SE,135,4.7,4.7,79,0.00,,---,0.00,VWS V14.01,2013-02-27 02:31:00,
2013-02-26 20:36:00,31.5,25.7,29.68,WNW,292,4.3,4.3,79,0.00,,---,0.00,VWS V14.01,2013-02-27 02:36:00,
2013-02-26 20:41:00,31.5,25.7,29.68,WNW,292,5.8,8.5,79,0.00,,---,0.00,VWS V14.01,2013-02-27 02:41:00,
2013-02-26 20:46:00,31.5,25.7,29.68,SW,225,5.6,5.6,79,0.00,,---,0.00,VWS V14.01,2013-02-27 02:46:00,
2013-02-26 20:51:00,31.3,25.5,29.68,WSW,248,5.6,5.6,79,0.00,,---,0.00,VWS V14.01,2013-02-27 02:51:00,
2013-02-26 20:56:00,31.3,25.5,29.68,NNW,338,7.4,7.4,79,0.00,,---,0.00,VWS V14.01,2013-02-27 02:56:00,
2013-02-26 21:01:00,31.3,25.5,29.68,NNW,338,4.9,4.9,79,0.00,,---,0.00,VWS V14.01,2013-02-27 03:01:00,
2013-02-26 21:06:00,31.3,25.5,29.68,NNW,338,4.0,4.0,79,0.00,,---,0.00,VWS V14.01,2013-02-27 03:06:00,
2013-02-26 21:11:00,31.1,25.4,29.68,NNW,338,5.6,5.6,79,0.00,,---,0.00,VWS V14.01,2013-02-27 03:11:00,
2013-02-26 21:16:00,31.1,25.4,29.68,WNW,292,3.6,3.6,79,0.00,,---,0.00,VWS V14.01,2013-02-27 03:16:00,
2013-02-26 21:21:00,31.1,25.4,29.68,WNW,292,6.5,6.5,79,0.00,,---,0.00,VWS V14.01,2013-02-27 03:21:00,
2013-02-26 21:26:00,30.9,25.2,29.68,WNW,292,7.2,7.2,79,0.00,,---,0.00,VWS V14.01,2013-02-27 03:26:00,
2013-02-26 21:31:00,30.9,25.2,29.68,NNW,338,6.0,6.0,79,0.00,,---,0.00,VWS V14.01,2013-02-27 03:31:00,
2013-02-26 21:36:00,30.9,25.2,29.68,NNW,338,3.6,3.6,79,0.00,,---,0.00,VWS V14.01,2013-02-27 03:36:00,
2013-02-26 21:41:00,30.7,25.0,29.68,NNE,22,2.9,6.0,79,0.00,,---,0.00,VWS V14.01,2013-02-27 03:41:00,
2013-02-26 21:46:00,30.7,25.0,29.68,ENE,68,2.5,2.5,79,0.00,,---,0.00,VWS V14.01,2013-02-27 03:46:00,
2013-02-26 21:51:00,30.7,25.0,29.68,ENE,68,3.4,3.4,79,0.00,,---,0.00,VWS V14.01,2013-02-27 03:51:00,
2013-02-26 21:56:00,30.6,24.8,29.71,SSW,202,2.2,2.2,79,0.00,,---,0.00,VWS V14.01,2013-02-27 03:56:00,
2013-02-26 22:01:00,30.6,24.8,29.71,SE,135,3.6,6.0,79,0.00,,---,0.00,VWS V14.01,2013-02-27 04:01:00,
2013-02-26 22:06:00,30.6,24.8,29.71,WSW,248,2.9,2.9,79,0.00,,---,0.00,VWS V14.01,2013-02-27 04:06:00,
2013-02-26 22:11:00,30.4,24.7,29.71,WSW,248,6.5,6.5,79,0.00,,---,0.00,VWS V14.01,2013-02-27 04:11:00,
2013-02-26 22:16:00,30.2,24.8,29.71,NNE,22,3.6,3.6,80,0.00,,---,0.00,VWS V14.01,2013-02-27 04:16:00,
2013-02-26 22:21:00,30.2,24.8,29.71,WNW,292,8.1,8.1,80,0.00,,---,0.00,VWS V14.01,2013-02-27 04:21:00,
2013-02-26 22:26:00,30.2,24.8,29.71,WNW,292,3.6,3.6,80,0.00,,---,0.00,VWS V14.01,2013-02-27 04:26:00,
2013-02-26 22:31:00,30.0,24.6,29.71,NE,45,4.5,4.5,80,0.00,,---,0.00,VWS V14.01,2013-02-27 04:31:00,
2013-02-26 22:36:00,30.0,24.6,29.71,WSW,248,4.0,4.0,80,0.00,,---,0.00,VWS V14.01,2013-02-27 04:36:00,
2013-02-26 22:41:00,30.0,24.6,29.71,WNW,292,3.1,4.3,80,0.00,,---,0.00,VWS V14.01,2013-02-27 04:41:00,
2013-02-26 22:46:00,29.8,24.4,29.71,NNW,338,2.7,4.7,80,0.00,,---,0.00,VWS V14.01,2013-02-27 04:46:00,
2013-02-26 22:51:00,29.8,24.4,29.71,NNE,22,6.0,6.0,80,0.00,,---,0.00,VWS V14.01,2013-02-27 04:51:00,
2013-02-26 22:56:00,29.7,24.3,29.71,ESE,112,2.9,2.9,80,0.00,,---,0.00,VWS V14.01,2013-02-27 04:56:00,
2013-02-26 23:00:00,29.7,24.3,29.71,ESE,112,3.8,3.8,80,0.00,,---,0.00,VWS V14.01,2013-02-27 05:00:00,
2013-02-26 23:05:00,29.5,24.1,29.71,NE,45,2.9,2.9,80,0.00,,---,0.00,VWS V14.01,2013-02-27 05:05:00,
2013-02-26 23:10:00,29.5,24.1,29.71,NNE,22,5.4,5.4,80,0.00,,---,0.00,VWS V14.01,2013-02-27 05:10:00,
2013-02-26 23:15:00,29.5,24.1,29.71,NNW,338,4.0,4.0,80,0.00,,---,0.00,VWS V14.01,2013-02-27 05:15:00,
2013-02-26 23:20:00,29.3,23.9,29.71,NNE,22,3.6,3.8,80,0.00,,---,0.00,VWS V14.01,2013-02-27 05:20:00,
2013-02-26 23:25:00,29.3,23.9,29.71,NNW,338,3.8,7.6,80,0.00,,---,0.00,VWS V14.01,2013-02-27 05:25:00,
2013-02-26 23:30:00,29.1,23.7,29.71,NNW,338,2.9,6.0,80,0.00,,---,0.00,VWS V14.01,2013-02-27 05:30:00,
2013-02-26 23:35:00,29.1,23.7,29.71,NW,315,4.9,8.7,80,0.00,,---,0.00,VWS V14.01,2013-02-27 05:35:00,
2013-02-26 23:40:00,28.9,23.6,29.71,NNW,338,5.4,5.4,80,0.00,,---,0.00,VWS V14.01,2013-02-27 05:40:00,
2013-02-26 23:45:00,28.9,23.6,29.71,ESE,112,3.8,6.7,80,0.00,,---,0.00,VWS V14.01,2013-02-27 05:45:00,
2013-02-26 23:50:00,28.9,23.6,29.71,NW,315,8.5,8.5,80,0.00,,---,0.00,VWS V14.01,2013-02-27 05:50:00,
2013-02-26 23:55:00,28.9,23.6,29.71,NNE,22,6.9,6.9,80,0.00,,---,0.00,VWS V14.01,2013-02-27 05:55:00,